LEGE/GRO METAR and TAF weather

Enter ICAO airport designator
Station Type Date Time Source
LEGE METAR 2020/11/27 14:30 UTC NOAA

LEGE 271430Z 05007KT 020V080 9999 SCT036 BKN069 15/13 Q1012


Station Type Date Time Source
LEGE Decoded METAR 2020/11/27 14:30 UTC NOAA

Gerona / Costa Brava, Spain (LEGE) 41-54N 002-46E 129M
Nov 27, 2020 - 09:30 AM EST / 2020.11.27 1430 UTC
Wind: from the NE (050 degrees) at 8 MPH (7 KT) (direction variable):0
Visibility: greater than 7 mile(s):0
Sky conditions: mostly cloudy
Temperature: 59 F (15 C)
Dew Point: 55 F (13 C)
Relative Humidity: 87%
Pressure (altimeter): 29.88 in. Hg (1012 hPa)
ob: LEGE 271430Z 05007KT 020V080 9999 SCT036 BKN069 15/13 Q1012
cycle: 14

Station Type Date Time Source
LEGE TAF 2020/11/27 12:28 UTC NOAA

TAF LEGE 271100Z 2712/2812 03005KT 6000 BKN016 TX17/2713Z TN10/2806Z
TEMPO 2712/2812 4000 TSRA FEW020CB PROB40
TEMPO 2718/2812 3000 +TSRA BKN012 FEW015CB

Example: see airport list